createdAt,value
2017-10-16T00:02:02.309Z,73.00
2017-10-16T00:04:36.809Z,73.40
2017-10-16T00:07:11.762Z,73.40
2017-10-16T00:09:45.664Z,73.80
2017-10-16T00:12:19.369Z,73.70
2017-10-16T00:14:53.305Z,73.60
2017-10-16T00:17:27.895Z,73.30
2017-10-16T00:20:01.716Z,73.20
2017-10-16T00:22:35.545Z,72.80
2017-10-16T00:25:09.423Z,72.70
2017-10-16T00:27:43.155Z,72.80
2017-10-16T00:30:17.501Z,72.60
2017-10-16T00:32:51.164Z,72.80
2017-10-16T00:35:25.885Z,72.80
2017-10-16T00:37:59.623Z,72.80
2017-10-16T00:40:33.452Z,73.00
2017-10-16T00:43:07.222Z,72.80
2017-10-16T00:45:41.106Z,72.70
2017-10-16T00:48:15.056Z,72.80
2017-10-16T00:50:48.918Z,72.80
2017-10-16T00:53:23.024Z,73.00
2017-10-16T00:55:56.685Z,73.00
2017-10-16T00:58:30.531Z,72.90
2017-10-16T01:01:04.461Z,72.90
2017-10-16T01:03:39.250Z,72.80
2017-10-16T01:06:13.653Z,72.80
2017-10-16T01:08:47.444Z,72.80
2017-10-16T01:11:21.081Z,72.80
2017-10-16T01:13:54.943Z,72.90
2017-10-16T01:16:29.601Z,73.40
2017-10-16T01:19:03.479Z,73.40
2017-10-16T01:21:37.374Z,73.90
2017-10-16T01:24:11.092Z,74.80
2017-10-16T01:26:48.420Z,75.10
2017-10-16T01:29:22.628Z,75.30
2017-10-16T01:31:57.056Z,74.90
2017-10-16T01:34:30.880Z,74.90
2017-10-16T01:37:04.687Z,74.50
2017-10-16T01:39:38.557Z,74.90
2017-10-16T01:42:12.299Z,74.90
2017-10-16T01:45:05.288Z,74.50
2017-10-16T01:47:39.110Z,74.80
2017-10-16T01:50:14.664Z,76.50
2017-10-16T01:52:48.526Z,75.70
2017-10-16T01:55:24.125Z,76.60
2017-10-16T01:57:58.019Z,76.00
2017-10-16T02:00:31.740Z,76.00
2017-10-16T02:03:06.291Z,75.10
2017-10-16T02:05:40.835Z,74.80
2017-10-16T02:08:14.564Z,74.80
2017-10-16T02:10:49.105Z,75.10
2017-10-16T02:13:22.864Z,74.60
2017-10-16T02:15:56.570Z,74.80
2017-10-16T02:18:30.340Z,75.00
2017-10-16T02:21:04.869Z,75.40
2017-10-16T02:23:39.403Z,75.20
2017-10-16T02:26:14.189Z,75.10
2017-10-16T02:28:48.616Z,75.60
2017-10-16T02:31:22.458Z,75.60
2017-10-16T02:33:56.128Z,76.40
2017-10-16T02:36:29.933Z,77.20
2017-10-16T02:39:03.629Z,77.10
2017-10-16T02:41:37.396Z,77.10
2017-10-16T02:44:11.138Z,77.00
2017-10-16T02:46:45.737Z,76.70
2017-10-16T02:49:19.443Z,76.60
2017-10-16T02:51:53.086Z,76.70
2017-10-16T02:54:26.824Z,76.70
2017-10-16T02:57:00.580Z,76.70
2017-10-16T02:59:35.120Z,76.60
2017-10-16T03:02:10.385Z,77.00
2017-10-16T03:04:44.234Z,76.50
2017-10-16T03:07:18.013Z,76.50
2017-10-16T03:09:51.733Z,76.20
2017-10-16T03:12:25.572Z,76.30
2017-10-16T03:14:59.276Z,76.90
2017-10-16T03:17:33.840Z,78.30
2017-10-16T03:20:09.315Z,77.70
2017-10-16T03:22:44.009Z,78.00
2017-10-16T03:25:18.500Z,78.10
2017-10-16T03:27:52.476Z,78.10
2017-10-16T03:30:26.362Z,78.20
2017-10-16T03:33:00.191Z,78.40
2017-10-16T03:35:34.685Z,78.90
2017-10-16T03:38:08.517Z,78.90
2017-10-16T03:40:42.350Z,79.20
2017-10-16T03:43:16.285Z,80.50
2017-10-16T03:45:50.000Z,80.10
2017-10-16T03:48:23.609Z,80.60
2017-10-16T03:50:58.170Z,80.00
2017-10-16T03:53:32.014Z,80.00
2017-10-16T03:56:05.777Z,79.60
2017-10-16T03:58:39.626Z,79.10
2017-10-16T04:01:13.355Z,78.90
2017-10-16T04:03:47.866Z,79.10
2017-10-16T04:06:21.660Z,79.10
2017-10-16T04:08:55.409Z,79.10
2017-10-16T04:11:29.186Z,78.90
2017-10-16T04:14:02.852Z,78.90
2017-10-16T04:16:36.471Z,79.30
2017-10-16T04:19:10.333Z,79.60
2017-10-16T04:21:44.122Z,80.00
2017-10-16T04:24:19.028Z,80.50
2017-10-16T04:26:52.911Z,80.50
2017-10-16T04:29:26.664Z,80.90
2017-10-16T04:32:35.867Z,81.20
2017-10-16T04:35:10.037Z,81.50
2017-10-16T04:37:43.613Z,81.80
2017-10-16T04:40:17.403Z,82.00
2017-10-16T04:42:50.949Z,82.20
2017-10-16T04:45:24.548Z,82.20
2017-10-16T04:48:05.109Z,82.70
2017-10-16T04:50:52.944Z,82.60
2017-10-16T04:53:52.029Z,83.00
2017-10-16T04:56:27.411Z,83.40
2017-10-16T04:59:01.094Z,83.30
2017-10-16T05:01:34.910Z,82.70
2017-10-16T05:04:08.575Z,82.00
2017-10-16T05:06:42.320Z,81.80
2017-10-16T05:09:16.152Z,81.30
2017-10-16T05:11:50.034Z,81.20
2017-10-16T05:14:25.184Z,81.00
2017-10-16T05:16:59.308Z,81.00
2017-10-16T05:19:33.033Z,81.10
2017-10-16T05:22:12.233Z,81.10
2017-10-16T05:24:45.926Z,80.90
2017-10-16T05:27:20.423Z,81.00
2017-10-16T05:29:54.025Z,81.40
2017-10-16T05:32:27.656Z,81.60
2017-10-16T05:35:01.260Z,81.90
2017-10-16T05:37:35.965Z,82.30
2017-10-16T05:40:10.777Z,82.20
2017-10-16T05:42:54.604Z,81.90
2017-10-16T05:45:28.382Z,82.20
2017-10-16T05:50:40.424Z,82.70
2017-10-16T05:53:14.449Z,83.00
2017-10-16T05:55:48.503Z,83.20
2017-10-16T05:58:23.884Z,83.50
2017-10-16T06:00:58.370Z,83.50
2017-10-16T06:03:32.226Z,83.50
2017-10-16T06:06:07.577Z,83.00
2017-10-16T06:08:41.278Z,83.00
2017-10-16T06:11:15.062Z,83.00
2017-10-16T06:13:49.452Z,82.80
2017-10-16T06:16:23.301Z,82.80
2017-10-16T06:18:57.283Z,82.60
2017-10-16T06:21:31.721Z,82.70
2017-10-16T06:24:06.346Z,82.60
2017-10-16T06:26:40.193Z,82.70
2017-10-16T06:29:13.896Z,81.80
2017-10-16T06:31:47.538Z,81.60
2017-10-16T06:34:22.065Z,81.00
2017-10-16T06:36:55.626Z,80.90
2017-10-16T06:39:29.433Z,80.40
2017-10-16T06:42:04.201Z,80.70
2017-10-16T06:44:38.894Z,79.90
2017-10-16T06:47:13.404Z,79.60
2017-10-16T06:49:47.089Z,79.30
2017-10-16T06:52:20.828Z,79.40
2017-10-16T06:54:55.039Z,79.10
2017-10-16T06:57:28.660Z,78.70
2017-10-16T07:00:02.564Z,78.40
2017-10-16T07:02:36.240Z,77.80
2017-10-16T07:05:10.093Z,77.50
2017-10-16T07:07:44.879Z,77.30
2017-10-16T07:10:19.783Z,77.00
2017-10-16T07:12:54.236Z,76.20
2017-10-16T07:15:28.349Z,76.20
2017-10-16T07:18:02.140Z,75.90
2017-10-16T07:20:37.503Z,75.40
2017-10-16T07:23:12.641Z,75.40
2017-10-16T07:25:46.440Z,75.10
2017-10-16T07:28:20.369Z,74.60
2017-10-16T07:30:54.333Z,74.40
2017-10-16T07:33:28.611Z,74.00
2017-10-16T07:36:03.548Z,73.60
2017-10-16T07:38:38.153Z,73.60
2017-10-16T07:41:12.004Z,73.20
2017-10-16T07:43:46.293Z,72.80
2017-10-16T07:46:21.742Z,72.20
2017-10-16T07:48:55.344Z,72.30
2017-10-16T07:51:29.598Z,72.30
2017-10-16T07:54:03.301Z,72.40
2017-10-16T07:56:37.324Z,72.50
2017-10-16T07:59:11.104Z,71.60
2017-10-16T08:01:45.108Z,71.50
2017-10-16T08:04:21.250Z,71.50
2017-10-16T08:06:55.417Z,71.10
2017-10-16T08:09:29.162Z,70.80
2017-10-16T08:12:05.482Z,70.50
2017-10-16T08:14:41.597Z,70.30
2017-10-16T08:17:17.253Z,70.40
2017-10-16T08:19:51.957Z,70.20
2017-10-16T08:22:28.184Z,70.20
2017-10-16T08:25:02.345Z,70.00
2017-10-16T08:27:37.034Z,70.00
2017-10-16T08:30:10.814Z,69.20
2017-10-16T08:32:44.584Z,69.10
2017-10-16T08:35:18.272Z,68.60
2017-10-16T08:37:52.910Z,68.30
2017-10-16T08:40:26.604Z,68.10
2017-10-16T08:43:03.485Z,68.00
2017-10-16T08:45:37.139Z,68.30
2017-10-16T08:48:11.515Z,68.20
2017-10-16T08:50:46.130Z,68.00
2017-10-16T08:53:19.974Z,67.90
2017-10-16T08:55:53.783Z,68.00
2017-10-16T08:58:27.661Z,67.60
2017-10-16T09:01:02.221Z,67.20
2017-10-16T09:03:35.963Z,67.10
2017-10-16T09:06:09.784Z,66.70
2017-10-16T09:08:44.973Z,65.60
2017-10-16T09:11:18.696Z,65.60
2017-10-16T09:13:53.876Z,65.70
2017-10-16T09:16:28.837Z,65.80
2017-10-16T09:19:03.616Z,65.80
2017-10-16T09:21:39.808Z,66.00
2017-10-16T09:24:14.560Z,65.40
2017-10-16T09:26:49.210Z,64.60
2017-10-16T09:29:22.962Z,64.50
2017-10-16T09:31:57.357Z,64.30
2017-10-16T09:34:31.156Z,63.60
2017-10-16T09:37:04.934Z,63.40
2017-10-16T09:39:39.985Z,63.40
2017-10-16T09:42:14.590Z,62.60
2017-10-16T09:44:48.611Z,62.80
2017-10-16T09:47:22.737Z,62.20
2017-10-16T09:52:35.081Z,61.60
2017-10-16T09:55:09.080Z,61.30
2017-10-16T09:57:43.177Z,61.20
2017-10-16T10:00:16.765Z,60.80
2017-10-16T10:02:50.840Z,61.10
2017-10-16T10:05:24.832Z,60.90
2017-10-16T10:07:58.441Z,61.00
2017-10-16T10:10:32.398Z,61.40
2017-10-16T10:13:10.036Z,61.80
2017-10-16T10:15:43.840Z,61.10
2017-10-16T10:18:19.393Z,61.30
2017-10-16T10:20:56.606Z,61.00
2017-10-16T10:23:31.453Z,61.00
2017-10-16T10:26:05.252Z,60.80
2017-10-16T10:28:39.380Z,60.40
2017-10-16T10:31:13.104Z,59.00
2017-10-16T10:33:47.091Z,59.00
2017-10-16T10:36:21.165Z,59.10
2017-10-16T10:38:55.634Z,58.70
2017-10-16T10:41:33.579Z,58.70
2017-10-16T10:44:08.310Z,58.30
2017-10-16T10:49:20.427Z,57.20
2017-10-16T10:54:32.093Z,56.30
2017-10-16T10:57:07.446Z,55.70
2017-10-16T10:59:41.074Z,55.40
2017-10-16T11:02:14.682Z,54.90
2017-10-16T11:07:28.037Z,54.80
2017-10-16T11:10:01.795Z,54.80
2017-10-16T11:12:36.040Z,54.80
2017-10-16T11:17:49.669Z,54.60
2017-10-16T11:20:24.111Z,53.40
2017-10-16T11:22:57.685Z,53.80
2017-10-16T11:25:33.212Z,54.10
2017-10-16T11:28:07.140Z,53.80
2017-10-16T11:30:42.364Z,53.50
2017-10-16T11:33:53.014Z,52.80
2017-10-16T11:36:28.831Z,52.40
2017-10-16T11:39:02.495Z,52.50
2017-10-16T11:41:36.252Z,52.60
2017-10-16T11:44:10.281Z,52.00
2017-10-16T11:46:44.905Z,51.70
2017-10-16T11:49:21.282Z,50.90
2017-10-16T11:54:34.936Z,50.80
2017-10-16T11:57:10.053Z,50.20
2017-10-16T11:59:43.701Z,49.90
2017-10-16T12:02:18.780Z,49.50
2017-10-16T12:04:54.486Z,49.40
2017-10-16T12:07:29.729Z,50.00
2017-10-16T12:10:05.717Z,50.50
2017-10-16T12:12:41.139Z,50.00
2017-10-16T12:15:14.929Z,49.30
2017-10-16T12:17:49.685Z,48.50
2017-10-16T12:20:24.325Z,49.00
2017-10-16T12:23:00.381Z,48.90
2017-10-16T12:25:34.267Z,48.40
2017-10-16T12:28:08.478Z,48.90
2017-10-16T12:30:42.278Z,48.60
2017-10-16T12:33:16.034Z,48.40
2017-10-16T12:35:50.842Z,47.90
2017-10-16T12:38:24.520Z,47.80
2017-10-16T12:43:36.678Z,47.60
2017-10-16T12:46:10.877Z,46.30
2017-10-16T12:48:45.227Z,44.40
2017-10-16T12:51:19.042Z,43.30
2017-10-16T12:53:54.006Z,42.20
2017-10-16T12:56:27.911Z,42.10
2017-10-16T12:59:03.175Z,42.50
2017-10-16T13:01:36.849Z,41.80
2017-10-16T13:04:11.966Z,40.60
2017-10-16T13:06:46.485Z,39.60
2017-10-16T13:09:20.356Z,39.50
2017-10-16T13:11:54.944Z,38.50
2017-10-16T13:14:28.714Z,38.50
2017-10-16T13:17:02.509Z,38.50
2017-10-16T13:19:36.777Z,38.60
2017-10-16T13:22:10.624Z,39.00
2017-10-16T13:24:45.136Z,37.20
2017-10-16T13:27:19.154Z,37.20
2017-10-16T13:29:53.638Z,35.10
2017-10-16T13:32:27.554Z,35.10
2017-10-16T13:35:01.300Z,37.70
2017-10-16T13:37:35.089Z,39.80
2017-10-16T13:40:09.557Z,39.70
2017-10-16T13:42:43.605Z,39.00
2017-10-16T13:45:17.490Z,38.50
2017-10-16T13:47:51.168Z,39.60
2017-10-16T13:50:25.741Z,41.80
2017-10-16T13:53:00.295Z,41.80
2017-10-16T13:55:35.924Z,39.50
2017-10-16T13:58:09.708Z,39.30
2017-10-16T14:00:43.343Z,38.00
2017-10-16T14:03:17.081Z,36.80
2017-10-16T14:05:50.812Z,35.20
2017-10-16T14:08:24.550Z,35.10
2017-10-16T14:11:00.453Z,35.30
2017-10-16T14:13:34.990Z,35.20
2017-10-16T14:16:08.945Z,35.20
2017-10-16T14:18:42.868Z,36.00
2017-10-16T14:21:16.478Z,36.80
2017-10-16T14:23:50.235Z,36.60
2017-10-16T14:26:23.972Z,36.30
2017-10-16T14:28:57.586Z,35.70
2017-10-16T14:31:31.442Z,36.70
2017-10-16T14:34:05.951Z,35.00
2017-10-16T14:36:39.770Z,35.00
2017-10-16T14:39:14.096Z,35.90
2017-10-16T14:41:47.737Z,35.40
2017-10-16T14:44:21.537Z,35.80
2017-10-16T14:46:55.425Z,34.50
2017-10-16T14:49:29.084Z,34.60
2017-10-16T14:52:03.637Z,33.90
2017-10-16T14:54:38.022Z,33.90
2017-10-16T14:57:11.713Z,34.80
2017-10-16T14:59:45.415Z,34.30
2017-10-16T15:02:20.807Z,34.80
2017-10-16T15:04:54.683Z,34.50
2017-10-16T15:07:28.401Z,34.70
2017-10-16T15:10:02.029Z,35.40
2017-10-16T15:12:35.765Z,36.10
2017-10-16T15:15:09.434Z,36.40
2017-10-16T15:17:43.240Z,37.00
2017-10-16T15:20:17.768Z,39.00
2017-10-16T15:22:51.557Z,39.00
2017-10-16T15:25:25.379Z,38.70
2017-10-16T15:27:59.087Z,40.20
2017-10-16T15:30:33.595Z,41.50
2017-10-16T15:33:07.298Z,41.50
2017-10-16T15:35:40.916Z,43.60
2017-10-16T15:38:15.373Z,47.10
2017-10-16T15:40:49.039Z,46.50
2017-10-16T15:43:22.789Z,48.00
2017-10-16T15:45:56.670Z,48.90
2017-10-16T15:48:30.413Z,50.20
2017-10-16T15:51:05.116Z,50.50
2017-10-16T15:53:40.570Z,52.20
2017-10-16T15:56:14.326Z,52.30
2017-10-16T15:58:48.065Z,52.50
2017-10-16T16:01:23.357Z,53.40
2017-10-16T16:03:57.056Z,53.40
2017-10-16T16:06:31.914Z,54.00
2017-10-16T16:09:06.886Z,54.90
2017-10-16T16:11:40.541Z,54.90
2017-10-16T16:14:14.304Z,55.30
2017-10-16T16:16:48.485Z,56.10
2017-10-16T16:19:22.219Z,55.70
2017-10-16T16:21:56.791Z,56.60
2017-10-16T16:24:30.576Z,56.60
2017-10-16T16:27:04.394Z,56.80
2017-10-16T16:29:38.094Z,57.20
2017-10-16T16:32:11.668Z,57.60
2017-10-16T16:34:45.495Z,57.70
2017-10-16T16:37:19.996Z,58.20
2017-10-16T16:39:53.781Z,58.10
2017-10-16T16:42:28.260Z,59.00
2017-10-16T16:45:01.960Z,58.90
2017-10-16T16:47:35.672Z,58.90
2017-10-16T16:50:09.417Z,59.00
2017-10-16T16:52:46.924Z,58.80
2017-10-16T16:55:21.390Z,60.00
2017-10-16T16:57:55.207Z,60.20
2017-10-16T17:00:28.988Z,60.70
2017-10-16T17:03:02.679Z,61.40
2017-10-16T17:05:39.600Z,62.90
2017-10-16T17:08:13.233Z,63.30
2017-10-16T17:10:50.290Z,64.30
2017-10-16T17:13:23.824Z,64.20
2017-10-16T17:15:57.524Z,64.70
2017-10-16T17:18:31.280Z,64.50
2017-10-16T17:21:05.036Z,64.70
2017-10-16T17:23:39.648Z,65.00
2017-10-16T17:29:44.355Z,65.60
2017-10-16T17:32:19.109Z,66.20
2017-10-16T17:41:36.742Z,66.60
2017-10-16T17:44:12.698Z,66.10
2017-10-16T17:46:47.932Z,66.40
2017-10-16T17:49:24.035Z,66.30
2017-10-16T17:51:57.925Z,66.50
2017-10-16T17:54:32.076Z,66.50
2017-10-16T17:57:05.715Z,66.50
2017-10-16T17:59:39.543Z,66.50
2017-10-16T18:02:14.190Z,66.50
2017-10-16T18:04:48.778Z,66.50
2017-10-16T18:07:23.533Z,66.40
2017-10-16T18:09:58.171Z,66.40
2017-10-16T18:12:34.815Z,66.50
2017-10-16T18:15:09.494Z,66.40
2017-10-16T18:17:44.529Z,66.40
2017-10-16T18:20:19.380Z,66.40
2017-10-16T18:22:53.017Z,66.40
2017-10-16T18:25:28.650Z,66.30
2017-10-16T18:28:03.326Z,66.20
2017-10-16T18:30:38.776Z,65.90
2017-10-16T18:33:14.211Z,65.30
2017-10-16T18:35:50.538Z,66.40
2017-10-16T18:38:26.142Z,66.10
2017-10-16T18:41:02.059Z,66.20
2017-10-16T18:43:38.870Z,66.20
2017-10-16T18:46:12.582Z,66.20
2017-10-16T18:48:47.180Z,66.20
2017-10-16T18:51:22.336Z,66.20
2017-10-16T18:53:59.574Z,66.20
2017-10-16T18:56:33.287Z,66.00
2017-10-16T18:59:21.674Z,66.00
2017-10-16T19:04:39.540Z,66.00
2017-10-16T19:07:13.358Z,65.80
2017-10-16T19:09:48.873Z,65.80
2017-10-16T19:12:24.069Z,66.00
2017-10-16T19:14:59.254Z,66.00
2017-10-16T19:17:33.349Z,65.80
2017-10-16T19:20:07.331Z,65.80
2017-10-16T19:22:41.662Z,65.80
2017-10-16T19:25:18.964Z,65.80
2017-10-16T19:30:30.433Z,65.80
2017-10-16T19:33:06.750Z,65.80
2017-10-16T19:35:41.489Z,65.60
2017-10-16T19:38:15.036Z,65.30
2017-10-16T19:40:49.189Z,65.60
2017-10-16T19:43:23.591Z,65.70
2017-10-16T19:45:59.596Z,65.20
2017-10-16T19:48:33.910Z,65.60
2017-10-16T19:51:09.034Z,65.30
2017-10-16T19:53:43.426Z,65.10
2017-10-16T19:56:21.064Z,65.00
2017-10-16T19:58:55.839Z,65.00
2017-10-16T20:01:29.858Z,65.00
2017-10-16T20:04:05.873Z,65.00
2017-10-16T20:06:39.641Z,64.70
2017-10-16T20:09:14.523Z,64.40
2017-10-16T20:11:49.405Z,64.60
2017-10-16T20:14:28.616Z,64.70
2017-10-16T20:17:05.949Z,64.60
2017-10-16T20:19:41.543Z,65.00
2017-10-16T20:22:17.072Z,65.00
2017-10-16T20:24:51.777Z,64.90
2017-10-16T20:27:25.519Z,64.70
2017-10-16T20:29:59.280Z,63.90
2017-10-16T20:32:33.050Z,64.10
2017-10-16T20:35:07.720Z,63.50
2017-10-16T20:37:49.979Z,63.20
2017-10-16T20:40:23.657Z,63.50
2017-10-16T20:42:57.665Z,63.40
2017-10-16T20:45:31.574Z,63.40
2017-10-16T20:48:16.412Z,63.80
2017-10-16T20:50:51.178Z,64.00
2017-10-16T20:53:24.941Z,64.20
2017-10-16T20:55:59.281Z,64.50
2017-10-16T20:58:34.842Z,64.90
2017-10-16T21:01:08.640Z,64.90
2017-10-16T21:03:42.353Z,64.90
2017-10-16T21:06:16.859Z,64.90
2017-10-16T21:08:50.528Z,64.90
2017-10-16T21:11:24.382Z,64.90
2017-10-16T21:13:59.373Z,65.00
2017-10-16T21:16:33.805Z,64.90
2017-10-16T21:19:07.581Z,64.90
2017-10-16T21:21:42.505Z,64.90
2017-10-16T21:24:17.207Z,64.90
2017-10-16T21:26:50.972Z,65.20
2017-10-16T21:29:24.700Z,65.60
2017-10-16T21:31:59.115Z,66.10
2017-10-16T21:34:32.878Z,66.70
2017-10-16T21:37:06.708Z,66.90
2017-10-16T21:39:42.394Z,67.00
2017-10-16T21:42:16.220Z,67.20
2017-10-16T21:44:49.952Z,67.30
2017-10-16T21:47:23.569Z,67.50
2017-10-16T21:49:57.336Z,67.80
2017-10-16T21:52:31.115Z,67.90
2017-10-16T21:55:05.637Z,67.90
2017-10-16T21:57:39.404Z,68.30
2017-10-16T22:00:14.250Z,68.30
2017-10-16T22:02:48.731Z,68.80
2017-10-16T22:05:23.281Z,69.40
2017-10-16T22:07:57.087Z,68.90
2017-10-16T22:10:30.921Z,69.20
2017-10-16T22:13:04.777Z,69.30
2017-10-16T22:15:38.608Z,69.20
2017-10-16T22:18:12.284Z,69.30
2017-10-16T22:20:46.015Z,69.20
2017-10-16T22:23:20.406Z,69.00
2017-10-16T22:25:54.175Z,69.00
2017-10-16T22:28:28.748Z,69.00
2017-10-16T22:31:03.244Z,69.50
2017-10-16T22:33:37.810Z,70.10
2017-10-16T22:36:11.561Z,70.20
2017-10-16T22:38:45.365Z,69.90
2017-10-16T22:41:19.121Z,69.80
2017-10-16T22:43:54.065Z,69.50
2017-10-16T22:46:27.837Z,68.70
2017-10-16T22:49:01.641Z,68.30
2017-10-16T22:51:36.139Z,67.60
2017-10-16T22:57:10.635Z,66.70
2017-10-16T22:59:44.289Z,66.30
2017-10-16T23:02:18.084Z,64.90
2017-10-16T23:04:51.868Z,65.10
2017-10-16T23:07:26.455Z,63.90
2017-10-16T23:10:00.202Z,63.90
2017-10-16T23:12:33.921Z,63.50
2017-10-16T23:15:07.681Z,63.30
2017-10-16T23:17:41.439Z,63.00
2017-10-16T23:20:15.225Z,62.60
2017-10-16T23:22:48.995Z,62.50
2017-10-16T23:25:24.754Z,62.50
2017-10-16T23:27:59.275Z,62.20
2017-10-16T23:30:33.905Z,62.10
2017-10-16T23:33:07.588Z,62.10
2017-10-16T23:35:41.417Z,62.10
2017-10-16T23:38:15.234Z,61.90
2017-10-16T23:40:49.057Z,62.10
2017-10-16T23:43:27.501Z,61.80
2017-10-16T23:46:02.224Z,61.80
2017-10-16T23:48:36.324Z,62.00
2017-10-16T23:51:10.119Z,62.20
2017-10-16T23:53:43.855Z,62.60
2017-10-16T23:56:18.295Z,63.40
2017-10-16T23:58:51.989Z,63.50
